sensor_id;sensor_type;location;lat;lon;timestamp;temperature;humidity
58447;DHT22;44240;51.840;7.258;2024-02-16T00:02:02;13.60;76.30
58447;DHT22;44240;51.840;7.258;2024-02-16T00:04:29;13.60;76.40
58447;DHT22;44240;51.840;7.258;2024-02-16T00:06:56;13.60;76.40
58447;DHT22;44240;51.840;7.258;2024-02-16T00:09:23;13.50;76.40
58447;DHT22;44240;51.840;7.258;2024-02-16T00:11:50;13.50;76.40
58447;DHT22;44240;51.840;7.258;2024-02-16T00:14:19;13.50;76.60
58447;DHT22;44240;51.840;7.258;2024-02-16T00:16:47;13.50;76.60
58447;DHT22;44240;51.840;7.258;2024-02-16T00:19:14;13.40;76.70
58447;DHT22;44240;51.840;7.258;2024-02-16T00:21:41;13.40;76.70
58447;DHT22;44240;51.840;7.258;2024-02-16T00:24:09;13.40;76.80
58447;DHT22;44240;51.840;7.258;2024-02-16T00:26:37;13.40;76.90
58447;DHT22;44240;51.840;7.258;2024-02-16T00:29:06;13.40;77.00
58447;DHT22;44240;51.840;7.258;2024-02-16T00:31:33;13.30;76.90
58447;DHT22;44240;51.840;7.258;2024-02-16T00:33:59;13.30;77.00
58447;DHT22;44240;51.840;7.258;2024-02-16T00:36:27;13.40;77.20
58447;DHT22;44240;51.840;7.258;2024-02-16T00:38:55;13.30;77.10
58447;DHT22;44240;51.840;7.258;2024-02-16T00:41:23;13.30;77.20
58447;DHT22;44240;51.840;7.258;2024-02-16T00:43:50;13.30;77.30
58447;DHT22;44240;51.840;7.258;2024-02-16T00:46:18;13.30;77.60
58447;DHT22;44240;51.840;7.258;2024-02-16T00:48:45;13.20;77.60
58447;DHT22;44240;51.840;7.258;2024-02-16T00:51:13;13.20;77.70
58447;DHT22;44240;51.840;7.258;2024-02-16T00:53:40;13.20;77.80
58447;DHT22;44240;51.840;7.258;2024-02-16T00:56:07;13.20;77.90
58447;DHT22;44240;51.840;7.258;2024-02-16T00:58:35;13.20;78.00
58447;DHT22;44240;51.840;7.258;2024-02-16T01:01:04;13.20;78.00
58447;DHT22;44240;51.840;7.258;2024-02-16T01:03:31;13.20;78.00
58447;DHT22;44240;51.840;7.258;2024-02-16T01:05:58;13.20;78.00
58447;DHT22;44240;51.840;7.258;2024-02-16T01:08:25;13.30;78.10
58447;DHT22;44240;51.840;7.258;2024-02-16T01:10:53;13.20;78.00
58447;DHT22;44240;51.840;7.258;2024-02-16T01:13:20;13.30;78.00
58447;DHT22;44240;51.840;7.258;2024-02-16T01:15:47;13.30;78.00
58447;DHT22;44240;51.840;7.258;2024-02-16T01:18:14;13.30;78.00
58447;DHT22;44240;51.840;7.258;2024-02-16T01:20:41;13.30;78.10
58447;DHT22;44240;51.840;7.258;2024-02-16T01:23:08;13.30;78.10
58447;DHT22;44240;51.840;7.258;2024-02-16T01:25:34;13.30;78.00
58447;DHT22;44240;51.840;7.258;2024-02-16T01:28:01;13.30;77.90
58447;DHT22;44240;51.840;7.258;2024-02-16T01:30:28;13.30;77.80
58447;DHT22;44240;51.840;7.258;2024-02-16T01:32:55;13.30;77.80
58447;DHT22;44240;51.840;7.258;2024-02-16T01:35:22;13.30;77.60
58447;DHT22;44240;51.840;7.258;2024-02-16T01:37:48;13.30;77.50
58447;DHT22;44240;51.840;7.258;2024-02-16T01:40:15;13.40;77.50
58447;DHT22;44240;51.840;7.258;2024-02-16T01:42:44;13.40;77.50
58447;DHT22;44240;51.840;7.258;2024-02-16T01:45:11;13.40;77.40
58447;DHT22;44240;51.840;7.258;2024-02-16T01:47:43;13.30;77.50
58447;DHT22;44240;51.840;7.258;2024-02-16T01:50:15;13.30;77.50
58447;DHT22;44240;51.840;7.258;2024-02-16T01:52:43;13.30;77.60
58447;DHT22;44240;51.840;7.258;2024-02-16T01:55:11;13.30;77.50
58447;DHT22;44240;51.840;7.258;2024-02-16T01:57:47;13.30;77.50
58447;DHT22;44240;51.840;7.258;2024-02-16T02:00:14;13.30;77.70
58447;DHT22;44240;51.840;7.258;2024-02-16T02:02:44;13.30;77.70
58447;DHT22;44240;51.840;7.258;2024-02-16T02:05:12;13.30;77.60
58447;DHT22;44240;51.840;7.258;2024-02-16T02:07:40;13.30;77.50
58447;DHT22;44240;51.840;7.258;2024-02-16T02:10:07;13.30;77.50
58447;DHT22;44240;51.840;7.258;2024-02-16T02:12:34;13.30;77.50
58447;DHT22;44240;51.840;7.258;2024-02-16T02:15:01;13.30;77.50
58447;DHT22;44240;51.840;7.258;2024-02-16T02:17:29;13.30;77.50
58447;DHT22;44240;51.840;7.258;2024-02-16T02:19:56;13.20;77.40
58447;DHT22;44240;51.840;7.258;2024-02-16T02:22:23;13.20;77.40
58447;DHT22;44240;51.840;7.258;2024-02-16T02:24:49;13.20;77.30
58447;DHT22;44240;51.840;7.258;2024-02-16T02:27:16;13.30;77.30
58447;DHT22;44240;51.840;7.258;2024-02-16T02:29:43;13.30;77.20
58447;DHT22;44240;51.840;7.258;2024-02-16T02:32:11;13.20;77.30
58447;DHT22;44240;51.840;7.258;2024-02-16T02:34:39;13.20;77.30
58447;DHT22;44240;51.840;7.258;2024-02-16T02:37:06;13.20;77.30
58447;DHT22;44240;51.840;7.258;2024-02-16T02:39:33;13.20;77.30
58447;DHT22;44240;51.840;7.258;2024-02-16T02:42:00;13.20;77.40
58447;DHT22;44240;51.840;7.258;2024-02-16T02:44:27;13.20;77.50
58447;DHT22;44240;51.840;7.258;2024-02-16T02:46:54;13.20;77.60
58447;DHT22;44240;51.840;7.258;2024-02-16T02:49:21;13.10;77.70
58447;DHT22;44240;51.840;7.258;2024-02-16T02:51:48;13.10;77.70
58447;DHT22;44240;51.840;7.258;2024-02-16T02:54:15;13.10;77.70
58447;DHT22;44240;51.840;7.258;2024-02-16T02:56:42;13.10;77.80
58447;DHT22;44240;51.840;7.258;2024-02-16T02:59:09;13.20;78.00
58447;DHT22;44240;51.840;7.258;2024-02-16T03:01:37;13.10;77.90
58447;DHT22;44240;51.840;7.258;2024-02-16T03:04:04;13.10;77.90
58447;DHT22;44240;51.840;7.258;2024-02-16T03:06:31;13.10;78.00
58447;DHT22;44240;51.840;7.258;2024-02-16T03:08:58;13.10;78.10
58447;DHT22;44240;51.840;7.258;2024-02-16T03:11:24;13.10;78.10
58447;DHT22;44240;51.840;7.258;2024-02-16T03:13:52;13.10;78.10
58447;DHT22;44240;51.840;7.258;2024-02-16T03:16:19;13.10;78.20
58447;DHT22;44240;51.840;7.258;2024-02-16T03:18:46;13.10;78.30
58447;DHT22;44240;51.840;7.258;2024-02-16T03:21:14;13.10;78.40
58447;DHT22;44240;51.840;7.258;2024-02-16T03:23:44;13.00;78.40
58447;DHT22;44240;51.840;7.258;2024-02-16T03:26:18;13.00;78.30
58447;DHT22;44240;51.840;7.258;2024-02-16T03:28:45;13.10;78.30
58447;DHT22;44240;51.840;7.258;2024-02-16T03:31:20;13.10;79.20
58447;DHT22;44240;51.840;7.258;2024-02-16T03:33:48;13.00;78.00
58447;DHT22;44240;51.840;7.258;2024-02-16T03:36:15;13.00;78.00
58447;DHT22;44240;51.840;7.258;2024-02-16T03:38:47;13.10;78.00
58447;DHT22;44240;51.840;7.258;2024-02-16T03:41:22;13.10;78.00
58447;DHT22;44240;51.840;7.258;2024-02-16T03:43:50;13.10;78.00
58447;DHT22;44240;51.840;7.258;2024-02-16T03:46:17;13.10;78.10
58447;DHT22;44240;51.840;7.258;2024-02-16T03:48:44;13.10;78.10
58447;DHT22;44240;51.840;7.258;2024-02-16T03:51:12;13.00;78.10
58447;DHT22;44240;51.840;7.258;2024-02-16T03:53:39;13.00;79.10
58447;DHT22;44240;51.840;7.258;2024-02-16T03:56:06;13.00;78.10
58447;DHT22;44240;51.840;7.258;2024-02-16T03:58:34;13.00;78.10
58447;DHT22;44240;51.840;7.258;2024-02-16T04:01:00;13.00;78.20
58447;DHT22;44240;51.840;7.258;2024-02-16T04:03:27;12.90;78.10
58447;DHT22;44240;51.840;7.258;2024-02-16T04:05:54;12.90;78.10
58447;DHT22;44240;51.840;7.258;2024-02-16T04:08:21;12.90;78.10
58447;DHT22;44240;51.840;7.258;2024-02-16T04:10:48;12.90;78.00
58447;DHT22;44240;51.840;7.258;2024-02-16T04:13:15;12.90;78.00
58447;DHT22;44240;51.840;7.258;2024-02-16T04:15:42;13.00;78.20
58447;DHT22;44240;51.840;7.258;2024-02-16T04:18:09;12.90;78.10
58447;DHT22;44240;51.840;7.258;2024-02-16T04:20:36;12.90;78.10
58447;DHT22;44240;51.840;7.258;2024-02-16T04:23:04;12.90;78.10
58447;DHT22;44240;51.840;7.258;2024-02-16T04:25:31;12.90;78.10
58447;DHT22;44240;51.840;7.258;2024-02-16T04:27:58;12.90;78.00
58447;DHT22;44240;51.840;7.258;2024-02-16T04:30:24;12.90;78.00
58447;DHT22;44240;51.840;7.258;2024-02-16T04:32:51;13.00;78.00
58447;DHT22;44240;51.840;7.258;2024-02-16T04:35:18;12.90;77.90
58447;DHT22;44240;51.840;7.258;2024-02-16T04:37:45;12.90;78.00
58447;DHT22;44240;51.840;7.258;2024-02-16T04:40:12;12.90;78.00
58447;DHT22;44240;51.840;7.258;2024-02-16T04:42:39;12.90;77.90
58447;DHT22;44240;51.840;7.258;2024-02-16T04:45:12;12.90;77.90
58447;DHT22;44240;51.840;7.258;2024-02-16T04:47:40;12.90;77.90
58447;DHT22;44240;51.840;7.258;2024-02-16T04:50:07;12.90;77.80
58447;DHT22;44240;51.840;7.258;2024-02-16T04:52:37;12.90;77.80
58447;DHT22;44240;51.840;7.258;2024-02-16T04:55:05;12.90;77.70
58447;DHT22;44240;51.840;7.258;2024-02-16T04:57:33;12.90;77.70
58447;DHT22;44240;51.840;7.258;2024-02-16T05:00:00;12.90;77.60
58447;DHT22;44240;51.840;7.258;2024-02-16T05:02:27;12.90;77.50
58447;DHT22;44240;51.840;7.258;2024-02-16T05:04:53;12.90;77.40
58447;DHT22;44240;51.840;7.258;2024-02-16T05:07:20;12.90;77.20
58447;DHT22;44240;51.840;7.258;2024-02-16T05:09:48;12.90;77.10
58447;DHT22;44240;51.840;7.258;2024-02-16T05:12:16;12.90;77.00
58447;DHT22;44240;51.840;7.258;2024-02-16T05:14:50;12.90;77.00
58447;DHT22;44240;51.840;7.258;2024-02-16T05:17:18;12.90;77.00
58447;DHT22;44240;51.840;7.258;2024-02-16T05:19:45;12.90;77.00
58447;DHT22;44240;51.840;7.258;2024-02-16T05:22:12;12.90;77.00
58447;DHT22;44240;51.840;7.258;2024-02-16T05:24:39;12.90;76.90
58447;DHT22;44240;51.840;7.258;2024-02-16T05:27:05;12.90;76.90
58447;DHT22;44240;51.840;7.258;2024-02-16T05:29:32;12.90;76.90
58447;DHT22;44240;51.840;7.258;2024-02-16T05:31:59;12.90;76.80
58447;DHT22;44240;51.840;7.258;2024-02-16T05:34:26;12.90;76.80
58447;DHT22;44240;51.840;7.258;2024-02-16T05:36:53;12.90;76.80
58447;DHT22;44240;51.840;7.258;2024-02-16T05:39:19;12.90;76.80
58447;DHT22;44240;51.840;7.258;2024-02-16T05:41:48;12.90;76.80
58447;DHT22;44240;51.840;7.258;2024-02-16T05:44:15;12.90;76.80
58447;DHT22;44240;51.840;7.258;2024-02-16T05:46:41;12.90;76.90
58447;DHT22;44240;51.840;7.258;2024-02-16T05:49:08;12.90;76.90
58447;DHT22;44240;51.840;7.258;2024-02-16T05:51:38;12.90;77.00
58447;DHT22;44240;51.840;7.258;2024-02-16T05:54:08;12.90;77.00
58447;DHT22;44240;51.840;7.258;2024-02-16T05:56:35;12.90;77.00
58447;DHT22;44240;51.840;7.258;2024-02-16T05:59:03;12.90;77.00
58447;DHT22;44240;51.840;7.258;2024-02-16T06:01:30;12.90;77.00
58447;DHT22;44240;51.840;7.258;2024-02-16T06:03:57;12.80;77.00
58447;DHT22;44240;51.840;7.258;2024-02-16T06:06:24;12.80;77.20
58447;DHT22;44240;51.840;7.258;2024-02-16T06:08:50;12.80;77.20
58447;DHT22;44240;51.840;7.258;2024-02-16T06:11:17;12.80;77.30
58447;DHT22;44240;51.840;7.258;2024-02-16T06:13:44;12.80;77.40
58447;DHT22;44240;51.840;7.258;2024-02-16T06:16:11;12.80;77.50
58447;DHT22;44240;51.840;7.258;2024-02-16T06:18:37;12.80;77.50
58447;DHT22;44240;51.840;7.258;2024-02-16T06:21:04;12.80;77.50
58447;DHT22;44240;51.840;7.258;2024-02-16T06:23:31;12.80;77.50
58447;DHT22;44240;51.840;7.258;2024-02-16T06:25:58;12.80;77.50
58447;DHT22;44240;51.840;7.258;2024-02-16T06:28:25;12.80;77.60
58447;DHT22;44240;51.840;7.258;2024-02-16T06:30:52;12.80;77.70
58447;DHT22;44240;51.840;7.258;2024-02-16T06:33:19;12.80;77.70
58447;DHT22;44240;51.840;7.258;2024-02-16T06:35:46;12.80;77.80
58447;DHT22;44240;51.840;7.258;2024-02-16T06:38:14;12.80;77.80
58447;DHT22;44240;51.840;7.258;2024-02-16T06:40:41;12.70;77.90
58447;DHT22;44240;51.840;7.258;2024-02-16T06:43:08;12.70;77.90
58447;DHT22;44240;51.840;7.258;2024-02-16T06:45:35;12.70;78.00
58447;DHT22;44240;51.840;7.258;2024-02-16T06:48:02;12.70;78.00
58447;DHT22;44240;51.840;7.258;2024-02-16T06:50:29;12.70;78.10
58447;DHT22;44240;51.840;7.258;2024-02-16T06:52:56;12.70;78.20
58447;DHT22;44240;51.840;7.258;2024-02-16T06:55:23;12.70;78.20
58447;DHT22;44240;51.840;7.258;2024-02-16T06:57:50;12.70;78.30
58447;DHT22;44240;51.840;7.258;2024-02-16T07:00:17;12.70;78.30
58447;DHT22;44240;51.840;7.258;2024-02-16T07:02:46;12.70;78.30
58447;DHT22;44240;51.840;7.258;2024-02-16T07:05:13;12.70;78.40
58447;DHT22;44240;51.840;7.258;2024-02-16T07:07:40;12.70;78.40
58447;DHT22;44240;51.840;7.258;2024-02-16T07:10:07;12.70;78.40
58447;DHT22;44240;51.840;7.258;2024-02-16T07:12:40;12.80;78.50
58447;DHT22;44240;51.840;7.258;2024-02-16T07:15:07;12.80;78.60
58447;DHT22;44240;51.840;7.258;2024-02-16T07:17:35;12.80;78.60
58447;DHT22;44240;51.840;7.258;2024-02-16T07:20:02;12.80;78.70
58447;DHT22;44240;51.840;7.258;2024-02-16T07:22:31;12.80;78.60
58447;DHT22;44240;51.840;7.258;2024-02-16T07:24:59;12.90;78.60
58447;DHT22;44240;51.840;7.258;2024-02-16T07:27:26;12.90;78.70
58447;DHT22;44240;51.840;7.258;2024-02-16T07:29:53;12.90;78.80
58447;DHT22;44240;51.840;7.258;2024-02-16T07:32:20;12.90;78.90
58447;DHT22;44240;51.840;7.258;2024-02-16T07:34:48;13.00;79.00
58447;DHT22;44240;51.840;7.258;2024-02-16T07:37:15;13.00;79.00
58447;DHT22;44240;51.840;7.258;2024-02-16T07:39:42;13.00;79.10
58447;DHT22;44240;51.840;7.258;2024-02-16T07:42:09;13.00;79.30
58447;DHT22;44240;51.840;7.258;2024-02-16T07:44:37;13.10;79.40
58447;DHT22;44240;51.840;7.258;2024-02-16T07:47:03;13.10;79.40
58447;DHT22;44240;51.840;7.258;2024-02-16T07:49:30;13.10;79.50
58447;DHT22;44240;51.840;7.258;2024-02-16T07:51:57;13.20;79.50
58447;DHT22;44240;51.840;7.258;2024-02-16T07:54:24;13.20;79.50
58447;DHT22;44240;51.840;7.258;2024-02-16T07:56:51;13.30;79.50
58447;DHT22;44240;51.840;7.258;2024-02-16T07:59:19;13.30;79.60
58447;DHT22;44240;51.840;7.258;2024-02-16T08:01:45;13.40;79.60
58447;DHT22;44240;51.840;7.258;2024-02-16T08:04:12;13.50;79.40
58447;DHT22;44240;51.840;7.258;2024-02-16T08:06:39;13.60;79.20
58447;DHT22;44240;51.840;7.258;2024-02-16T08:09:06;13.60;78.90
58447;DHT22;44240;51.840;7.258;2024-02-16T08:11:33;13.70;78.90
58447;DHT22;44240;51.840;7.258;2024-02-16T08:14:00;13.80;78.80
58447;DHT22;44240;51.840;7.258;2024-02-16T08:16:27;13.90;78.60
58447;DHT22;44240;51.840;7.258;2024-02-16T08:18:54;13.90;78.40
58447;DHT22;44240;51.840;7.258;2024-02-16T08:21:21;14.00;78.20
58447;DHT22;44240;51.840;7.258;2024-02-16T08:23:48;14.00;78.10
58447;DHT22;44240;51.840;7.258;2024-02-16T08:26:15;14.10;78.10
58447;DHT22;44240;51.840;7.258;2024-02-16T08:28:44;14.20;77.90
58447;DHT22;44240;51.840;7.258;2024-02-16T08:31:18;14.20;77.80
58447;DHT22;44240;51.840;7.258;2024-02-16T08:33:45;14.20;77.70
58447;DHT22;44240;51.840;7.258;2024-02-16T08:36:14;14.30;77.60
58447;DHT22;44240;51.840;7.258;2024-02-16T08:38:41;14.40;77.30
58447;DHT22;44240;51.840;7.258;2024-02-16T08:41:08;14.40;78.20
58447;DHT22;44240;51.840;7.258;2024-02-16T08:43:35;14.50;77.00
58447;DHT22;44240;51.840;7.258;2024-02-16T08:46:01;14.50;77.00
58447;DHT22;44240;51.840;7.258;2024-02-16T08:48:28;14.50;77.00
58447;DHT22;44240;51.840;7.258;2024-02-16T08:50:55;14.60;76.60
58447;DHT22;44240;51.840;7.258;2024-02-16T08:53:22;14.60;76.50
58447;DHT22;44240;51.840;7.258;2024-02-16T08:55:49;14.70;76.40
58447;DHT22;44240;51.840;7.258;2024-02-16T08:58:15;14.70;76.20
58447;DHT22;44240;51.840;7.258;2024-02-16T09:00:42;14.80;77.10
58447;DHT22;44240;51.840;7.258;2024-02-16T09:03:10;14.80;75.90
58447;DHT22;44240;51.840;7.258;2024-02-16T09:05:37;14.90;75.40
58447;DHT22;44240;51.840;7.258;2024-02-16T09:08:04;15.00;75.20
58447;DHT22;44240;51.840;7.258;2024-02-16T09:10:32;15.10;75.70
58447;DHT22;44240;51.840;7.258;2024-02-16T09:13:03;15.20;74.50
58447;DHT22;44240;51.840;7.258;2024-02-16T09:15:30;15.20;74.40
58447;DHT22;44240;51.840;7.258;2024-02-16T09:17:57;15.30;73.80
58447;DHT22;44240;51.840;7.258;2024-02-16T09:20:24;15.40;73.90
58447;DHT22;44240;51.840;7.258;2024-02-16T09:22:50;15.40;74.00
58447;DHT22;44240;51.840;7.258;2024-02-16T09:25:17;15.50;73.70
58447;DHT22;44240;51.840;7.258;2024-02-16T09:27:44;15.50;73.30
58447;DHT22;44240;51.840;7.258;2024-02-16T09:30:12;15.60;73.50
58447;DHT22;44240;51.840;7.258;2024-02-16T09:32:40;15.60;73.40
58447;DHT22;44240;51.840;7.258;2024-02-16T09:35:08;15.70;73.40
58447;DHT22;44240;51.840;7.258;2024-02-16T09:37:35;15.70;72.60
58447;DHT22;44240;51.840;7.258;2024-02-16T09:40:05;15.80;72.60
58447;DHT22;44240;51.840;7.258;2024-02-16T09:42:32;15.80;72.60
58447;DHT22;44240;51.840;7.258;2024-02-16T09:45:06;15.90;72.20
58447;DHT22;44240;51.840;7.258;2024-02-16T09:47:34;15.90;72.30
58447;DHT22;44240;51.840;7.258;2024-02-16T09:50:01;15.90;71.90
58447;DHT22;44240;51.840;7.258;2024-02-16T09:52:30;16.00;71.60
58447;DHT22;44240;51.840;7.258;2024-02-16T09:54:56;15.90;71.30
58447;DHT22;44240;51.840;7.258;2024-02-16T09:57:23;16.00;71.40
58447;DHT22;44240;51.840;7.258;2024-02-16T09:59:50;16.00;71.40
58447;DHT22;44240;51.840;7.258;2024-02-16T10:02:17;16.00;71.20
58447;DHT22;44240;51.840;7.258;2024-02-16T10:04:44;16.00;71.30
58447;DHT22;44240;51.840;7.258;2024-02-16T10:07:11;16.10;71.20
58447;DHT22;44240;51.840;7.258;2024-02-16T10:09:39;16.10;70.80
58447;DHT22;44240;51.840;7.258;2024-02-16T10:12:08;16.10;70.90
58447;DHT22;44240;51.840;7.258;2024-02-16T10:14:36;16.20;70.80
58447;DHT22;44240;51.840;7.258;2024-02-16T10:17:05;16.20;71.00
58447;DHT22;44240;51.840;7.258;2024-02-16T10:19:34;16.20;70.90
58447;DHT22;44240;51.840;7.258;2024-02-16T10:22:12;16.20;71.00
58447;DHT22;44240;51.840;7.258;2024-02-16T10:24:40;16.20;70.50
58447;DHT22;44240;51.840;7.258;2024-02-16T10:27:16;16.20;70.60
58447;DHT22;44240;51.840;7.258;2024-02-16T10:29:44;16.20;70.60
58447;DHT22;44240;51.840;7.258;2024-02-16T10:32:12;16.30;70.60
58447;DHT22;44240;51.840;7.258;2024-02-16T10:34:40;16.30;70.70
58447;DHT22;44240;51.840;7.258;2024-02-16T10:37:08;16.30;70.50
58447;DHT22;44240;51.840;7.258;2024-02-16T10:39:35;16.30;70.50
58447;DHT22;44240;51.840;7.258;2024-02-16T10:42:05;16.30;70.80
58447;DHT22;44240;51.840;7.258;2024-02-16T10:44:34;16.30;70.80
58447;DHT22;44240;51.840;7.258;2024-02-16T10:47:02;16.40;70.60
58447;DHT22;44240;51.840;7.258;2024-02-16T10:49:31;16.40;70.80
58447;DHT22;44240;51.840;7.258;2024-02-16T10:51:58;16.30;70.90
58447;DHT22;44240;51.840;7.258;2024-02-16T10:54:29;16.40;71.00
58447;DHT22;44240;51.840;7.258;2024-02-16T10:56:57;16.40;70.80
58447;DHT22;44240;51.840;7.258;2024-02-16T10:59:24;16.40;70.70
58447;DHT22;44240;51.840;7.258;2024-02-16T11:02:00;16.40;70.80
58447;DHT22;44240;51.840;7.258;2024-02-16T11:04:36;16.40;70.80
58447;DHT22;44240;51.840;7.258;2024-02-16T11:07:11;16.40;71.00
58447;DHT22;44240;51.840;7.258;2024-02-16T11:09:39;16.40;70.70
58447;DHT22;44240;51.840;7.258;2024-02-16T11:12:07;16.40;70.90
58447;DHT22;44240;51.840;7.258;2024-02-16T11:17:11;16.40;71.30
58447;DHT22;44240;51.840;7.258;2024-02-16T11:19:43;16.40;71.50
58447;DHT22;44240;51.840;7.258;2024-02-16T11:22:10;16.40;71.50
58447;DHT22;44240;51.840;7.258;2024-02-16T11:24:49;16.50;71.70
58447;DHT22;44240;51.840;7.258;2024-02-16T11:27:17;16.40;71.80
58447;DHT22;44240;51.840;7.258;2024-02-16T11:29:49;16.50;71.70
58447;DHT22;44240;51.840;7.258;2024-02-16T11:32:18;16.50;71.50
58447;DHT22;44240;51.840;7.258;2024-02-16T11:34:45;16.50;71.80
58447;DHT22;44240;51.840;7.258;2024-02-16T11:37:13;16.50;72.10
58447;DHT22;44240;51.840;7.258;2024-02-16T11:39:40;16.50;72.00
58447;DHT22;44240;51.840;7.258;2024-02-16T11:42:12;16.50;71.90
58447;DHT22;44240;51.840;7.258;2024-02-16T11:44:49;16.50;72.10
58447;DHT22;44240;51.840;7.258;2024-02-16T11:47:20;16.40;72.30
58447;DHT22;44240;51.840;7.258;2024-02-16T11:50:05;16.40;72.20
58447;DHT22;44240;51.840;7.258;2024-02-16T11:52:33;16.40;72.30
58447;DHT22;44240;51.840;7.258;2024-02-16T11:55:01;16.40;72.50
58447;DHT22;44240;51.840;7.258;2024-02-16T11:57:30;16.40;72.60
58447;DHT22;44240;51.840;7.258;2024-02-16T11:59:58;16.40;72.60
58447;DHT22;44240;51.840;7.258;2024-02-16T12:02:26;16.40;72.70
58447;DHT22;44240;51.840;7.258;2024-02-16T12:04:59;16.40;72.80
58447;DHT22;44240;51.840;7.258;2024-02-16T12:07:30;16.40;72.70
58447;DHT22;44240;51.840;7.258;2024-02-16T12:09:59;16.40;72.80
58447;DHT22;44240;51.840;7.258;2024-02-16T12:12:26;16.40;72.90
58447;DHT22;44240;51.840;7.258;2024-02-16T12:14:54;16.40;73.20
58447;DHT22;44240;51.840;7.258;2024-02-16T12:17:21;16.40;73.50
58447;DHT22;44240;51.840;7.258;2024-02-16T12:19:50;16.30;73.90
58447;DHT22;44240;51.840;7.258;2024-02-16T12:22:19;16.30;74.30
58447;DHT22;44240;51.840;7.258;2024-02-16T12:24:46;16.30;74.80
58447;DHT22;44240;51.840;7.258;2024-02-16T12:27:13;16.30;75.20
58447;DHT22;44240;51.840;7.258;2024-02-16T12:29:41;16.20;75.40
58447;DHT22;44240;51.840;7.258;2024-02-16T12:32:08;16.20;75.60
58447;DHT22;44240;51.840;7.258;2024-02-16T12:34:37;16.10;75.70
58447;DHT22;44240;51.840;7.258;2024-02-16T12:37:05;16.10;75.80
58447;DHT22;44240;51.840;7.258;2024-02-16T12:39:34;16.10;75.90
58447;DHT22;44240;51.840;7.258;2024-02-16T12:42:01;16.10;76.00
58447;DHT22;44240;51.840;7.258;2024-02-16T12:44:29;16.10;76.20
58447;DHT22;44240;51.840;7.258;2024-02-16T12:46:57;16.10;76.20
58447;DHT22;44240;51.840;7.258;2024-02-16T12:49:23;16.10;76.30
58447;DHT22;44240;51.840;7.258;2024-02-16T12:51:51;16.10;76.30
58447;DHT22;44240;51.840;7.258;2024-02-16T12:54:18;16.00;76.30
58447;DHT22;44240;51.840;7.258;2024-02-16T12:56:49;16.10;76.50
58447;DHT22;44240;51.840;7.258;2024-02-16T12:59:17;16.00;76.50
58447;DHT22;44240;51.840;7.258;2024-02-16T13:01:45;16.00;76.60
58447;DHT22;44240;51.840;7.258;2024-02-16T13:04:12;16.00;76.70
58447;DHT22;44240;51.840;7.258;2024-02-16T13:06:47;16.00;76.70
58447;DHT22;44240;51.840;7.258;2024-02-16T13:09:14;16.00;76.80
58447;DHT22;44240;51.840;7.258;2024-02-16T13:11:41;16.00;76.90
58447;DHT22;44240;51.840;7.258;2024-02-16T13:14:08;16.00;77.00
58447;DHT22;44240;51.840;7.258;2024-02-16T13:16:35;15.90;77.00
58447;DHT22;44240;51.840;7.258;2024-02-16T13:19:02;15.90;77.10
58447;DHT22;44240;51.840;7.258;2024-02-16T13:21:30;15.90;77.20
58447;DHT22;44240;51.840;7.258;2024-02-16T13:23:57;15.90;77.30
58447;DHT22;44240;51.840;7.258;2024-02-16T13:26:24;15.90;77.50
58447;DHT22;44240;51.840;7.258;2024-02-16T13:28:51;15.90;78.10
58447;DHT22;44240;51.840;7.258;2024-02-16T13:31:19;15.90;78.60
58447;DHT22;44240;51.840;7.258;2024-02-16T13:33:46;15.80;79.20
58447;DHT22;44240;51.840;7.258;2024-02-16T13:36:12;15.80;79.70
58447;DHT22;44240;51.840;7.258;2024-02-16T13:38:39;15.70;80.20
58447;DHT22;44240;51.840;7.258;2024-02-16T13:41:06;15.70;80.90
58447;DHT22;44240;51.840;7.258;2024-02-16T13:43:33;15.60;81.40
58447;DHT22;44240;51.840;7.258;2024-02-16T13:46:00;15.60;81.80
58447;DHT22;44240;51.840;7.258;2024-02-16T13:48:27;15.50;82.30
58447;DHT22;44240;51.840;7.258;2024-02-16T13:50:54;15.50;82.70
58447;DHT22;44240;51.840;7.258;2024-02-16T13:53:23;15.40;82.90
58447;DHT22;44240;51.840;7.258;2024-02-16T13:55:50;15.40;83.10
58447;DHT22;44240;51.840;7.258;2024-02-16T13:58:16;15.40;83.40
58447;DHT22;44240;51.840;7.258;2024-02-16T14:00:43;15.40;83.70
58447;DHT22;44240;51.840;7.258;2024-02-16T14:03:14;15.30;83.80
58447;DHT22;44240;51.840;7.258;2024-02-16T14:05:44;15.30;84.10
58447;DHT22;44240;51.840;7.258;2024-02-16T14:08:12;15.20;84.40
58447;DHT22;44240;51.840;7.258;2024-02-16T14:10:41;15.20;84.40
58447;DHT22;44240;51.840;7.258;2024-02-16T14:13:08;15.20;84.60
58447;DHT22;44240;51.840;7.258;2024-02-16T14:15:35;15.20;84.80
58447;DHT22;44240;51.840;7.258;2024-02-16T14:18:02;15.20;84.90
58447;DHT22;44240;51.840;7.258;2024-02-16T14:20:40;15.20;84.90
58447;DHT22;44240;51.840;7.258;2024-02-16T14:23:07;15.20;85.00
58447;DHT22;44240;51.840;7.258;2024-02-16T14:25:35;15.20;85.00
58447;DHT22;44240;51.840;7.258;2024-02-16T14:28:05;15.10;84.90
58447;DHT22;44240;51.840;7.258;2024-02-16T14:30:32;15.10;85.00
58447;DHT22;44240;51.840;7.258;2024-02-16T14:33:00;15.10;85.10
58447;DHT22;44240;51.840;7.258;2024-02-16T14:35:27;15.20;85.20
58447;DHT22;44240;51.840;7.258;2024-02-16T14:37:54;15.10;85.10
58447;DHT22;44240;51.840;7.258;2024-02-16T14:40:21;15.10;85.10
58447;DHT22;44240;51.840;7.258;2024-02-16T14:42:48;15.10;85.10
58447;DHT22;44240;51.840;7.258;2024-02-16T14:45:15;15.10;85.10
58447;DHT22;44240;51.840;7.258;2024-02-16T14:47:48;15.20;85.20
58447;DHT22;44240;51.840;7.258;2024-02-16T14:50:15;15.20;85.20
58447;DHT22;44240;51.840;7.258;2024-02-16T14:52:42;15.10;85.10
58447;DHT22;44240;51.840;7.258;2024-02-16T14:55:11;15.10;85.10
58447;DHT22;44240;51.840;7.258;2024-02-16T14:57:40;15.10;85.10
58447;DHT22;44240;51.840;7.258;2024-02-16T15:00:08;15.10;85.10
58447;DHT22;44240;51.840;7.258;2024-02-16T15:02:37;15.10;85.20
58447;DHT22;44240;51.840;7.258;2024-02-16T15:05:07;15.10;85.30
58447;DHT22;44240;51.840;7.258;2024-02-16T15:07:34;15.10;85.30
58447;DHT22;44240;51.840;7.258;2024-02-16T15:10:02;15.10;85.40
58447;DHT22;44240;51.840;7.258;2024-02-16T15:12:30;15.00;85.50
58447;DHT22;44240;51.840;7.258;2024-02-16T15:14:58;15.00;85.60
58447;DHT22;44240;51.840;7.258;2024-02-16T15:17:26;15.00;85.50
58447;DHT22;44240;51.840;7.258;2024-02-16T15:19:53;15.00;85.60
58447;DHT22;44240;51.840;7.258;2024-02-16T15:22:20;15.00;85.60
58447;DHT22;44240;51.840;7.258;2024-02-16T15:24:47;15.00;85.60
58447;DHT22;44240;51.840;7.258;2024-02-16T15:27:14;15.00;85.60
58447;DHT22;44240;51.840;7.258;2024-02-16T15:29:41;15.00;85.80
58447;DHT22;44240;51.840;7.258;2024-02-16T15:32:08;15.00;85.80
58447;DHT22;44240;51.840;7.258;2024-02-16T15:34:35;14.90;85.80
58447;DHT22;44240;51.840;7.258;2024-02-16T15:37:02;14.90;85.80